Time;durP1;ratioP1;P1;durP2;ratioP2;P2;SDS_P1;SDS_P2;PMS_P1;PMS_P2;Temp;Humidity;BMP_temperature;BMP_pressure;BME280_temperature;BME280_humidity;BME280_pressure;Samples;Min_cycle;Max_cycle;Signal;HPM_P1;HPM_P2
2023/08/21 00:00:13;;;;;;;22.80;11.60;;;;;;;-149.70;100.00;76312.59;4971204;28;20047;-60
2023/08/21 00:02:39;;;;;;;17.45;10.75;;;;;;;-149.70;100.00;76290.22;4971104;28;20503;-59
2023/08/21 00:05:07;;;;;;;16.75;11.98;;;;;;;-149.70;100.00;76298.34;4970945;28;20378;-59
2023/08/21 00:07:33;;;;;;;15.75;11.63;;;;;;;-149.70;100.00;76312.59;4970540;28;20149;-58
2023/08/21 00:10:00;;;;;;;22.02;13.35;;;;;;;-149.70;100.00;76328.84;4971567;28;20109;-58
2023/08/21 00:12:26;;;;;;;21.13;11.93;;;;;;;-149.70;100.00;76320.72;4971109;28;20073;-59
2023/08/21 00:14:53;;;;;;;19.70;12.65;;;;;;;-149.70;100.00;76316.66;4971342;28;20043;-59
2023/08/21 00:17:19;;;;;;;20.00;12.20;;;;;;;-149.70;100.00;76322.75;4971254;28;20054;-59
2023/08/21 00:19:48;;;;;;;16.23;11.43;;;;;;;-149.70;100.00;76320.72;4969888;28;20469;-59
2023/08/21 00:22:15;;;;;;;22.70;11.65;;;;;;;-149.70;100.00;76328.84;4971155;28;20081;-58
2023/08/21 00:24:42;;;;;;;12.90;11.23;;;;;;;-149.70;100.00;76322.75;4986127;28;20047;-60
2023/08/21 00:27:08;;;;;;;21.83;11.82;;;;;;;-149.70;100.00;76326.81;4971299;28;20043;-59
2023/08/21 00:29:36;;;;;;;16.25;11.57;;;;;;;-149.70;100.00;76334.94;4971064;28;20097;-59
2023/08/21 00:32:02;;;;;;;19.73;11.90;;;;;;;-149.70;100.00;76341.06;4974793;28;20462;-59
2023/08/21 00:34:29;;;;;;;20.92;12.93;;;;;;;-149.70;100.00;76343.09;4975361;28;20038;-59
2023/08/21 00:36:55;;;;;;;16.35;11.75;;;;;;;-149.70;100.00;76312.59;4974615;28;20047;-59
2023/08/21 00:39:22;;;;;;;23.55;11.65;;;;;;;-149.70;100.00;76314.63;4974779;28;20109;-59
2023/08/21 00:41:48;;;;;;;14.90;11.13;;;;;;;-149.70;100.00;76320.72;4974351;28;20407;-59
2023/08/21 00:44:15;;;;;;;18.05;10.90;;;;;;;-149.70;100.00;76324.78;4974470;28;20529;-59
2023/08/21 00:46:41;;;;;;;17.70;11.18;;;;;;;-149.70;100.00;76318.69;4974700;28;20479;-60
2023/08/21 00:49:10;;;;;;;18.30;11.13;;;;;;;-149.70;100.00;76322.75;4975051;28;20047;-59
2023/08/21 00:51:37;;;;;;;18.35;10.75;;;;;;;-149.70;100.00;76314.63;4974759;28;20101;-59
2023/08/21 00:54:05;;;;;;;18.00;10.80;;;;;;;-149.70;100.00;76336.97;4974436;28;20049;-60
2023/08/21 00:56:33;;;;;;;15.48;10.52;;;;;;;-149.70;100.00;76332.91;4974090;28;20047;-59
2023/08/21 00:59:00;;;;;;;17.20;10.73;;;;;;;-149.70;100.00;76312.59;4974694;28;20062;-61
2023/08/21 01:01:28;;;;;;;20.02;10.93;;;;;;;-149.70;100.00;76298.34;4974999;28;20043;-59
2023/08/21 01:03:55;;;;;;;13.30;10.38;;;;;;;0.04;100.00;98531.59;4973963;28;20074;-59
2023/08/21 01:10:20;;;;;;;13.70;10.52;;;;;;;1.15;100.00;98733.72;4972660;28;20516;-60
2023/08/21 01:13:08;;;;;;;13.18;10.15;;;;;;;1.58;100.00;98784.22;4973807;28;20106;-59
2023/08/21 01:15:37;;;;;;;20.02;10.57;;;;;;;0.71;100.00;98661.47;4973500;28;20057;-59
2023/08/21 01:18:04;;;;;;;13.65;9.68;;;;;;;4.19;100.00;99204.03;4973651;28;20493;-59
2023/08/21 01:20:31;;;;;;;16.73;10.30;;;;;;;9.20;100.00;100020.00;4972810;28;20058;-59
2023/08/21 01:23:04;;;;;;;14.77;9.77;;;;;;;7.89;100.00;99812.25;4972921;28;20050;-59
2023/08/21 01:25:31;;;;;;;20.30;10.00;;;;;;;8.50;100.00;99886.75;4973110;28;20136;-59
2023/08/21 01:27:57;;;;;;;19.48;11.18;;;;;;;8.87;100.00;99946.91;4973312;28;20094;-59
2023/08/21 01:30:28;;;;;;;15.32;10.43;;;;;;;10.58;100.00;100221.72;4973556;28;20066;-59
2023/08/21 01:33:08;;;;;;;15.98;10.75;;;;;;;7.45;100.00;99742.22;4973651;28;20050;-59
2023/08/21 01:35:35;;;;;;;18.73;9.35;;;;;;;4.62;100.00;99272.19;4973245;28;20050;-59
2023/08/21 01:38:05;;;;;;;14.25;10.05;;;;;;;3.67;100.00;99127.91;4973819;28;20090;-59
2023/08/21 01:40:32;;;;;;;16.23;9.48;;;;;;;1.28;100.00;98754.50;4973581;28;20070;-59
2023/08/21 01:42:58;;;;;;;17.60;10.73;;;;;;;-6.64;100.00;97483.13;4972053;28;20494;-59
2023/08/21 01:45:25;;;;;;;14.13;9.75;;;;;;;-13.31;100.00;96394.94;4972547;28;20051;-59
2023/08/21 01:47:52;;;;;;;16.13;10.68;;;;;;;5.43;100.00;99399.38;4972287;28;20047;-59
2023/08/21 01:50:19;;;;;;;19.52;10.00;;;;;;;9.39;100.00;100026.84;4972537;28;20066;-62
2023/08/21 01:52:46;;;;;;;16.15;10.80;;;;;;;10.87;100.00;100270.25;4972364;28;20414;-59
2023/08/21 01:55:12;;;;;;;23.40;10.82;;;;;;;10.23;100.00;100170.16;4972669;28;20105;-60
2023/08/21 01:57:39;;;;;;;17.08;10.77;;;;;;;10.27;100.00;100183.06;4972341;28;20101;-60
2023/08/21 02:00:07;;;;;;;16.55;10.90;;;;;;;7.52;100.00;99743.25;4972123;28;20074;-59
2023/08/21 02:02:33;;;;;;;13.07;10.93;;;;;;;5.94;100.00;99496.06;4973337;28;20057;-59
2023/08/21 02:05:00;;;;;;;18.08;11.68;;;;;;;3.17;100.00;99045.50;4972736;28;20047;-59
2023/08/21 02:07:26;;;;;;;16.45;10.85;;;;;;;4.55;100.00;99261.34;4972461;28;20526;-59
2023/08/21 02:09:53;;;;;;;16.27;10.88;;;;;;;4.78;100.00;99292.72;4972504;28;20518;-59
2023/08/21 02:12:19;;;;;;;14.93;10.43;;;;;;;8.04;100.00;99811.59;4971701;28;20043;-62
2023/08/21 02:14:46;;;;;;;18.95;9.90;;;;;;;10.89;100.00;100267.38;4972140;28;20071;-60
2023/08/21 02:17:12;;;;;;;16.98;10.68;;;;;;;11.03;100.00;100279.25;4955149;28;20053;-59
2023/08/21 02:19:39;;;;;;;18.27;10.52;;;;;;;11.71;100.00;100386.06;4955524;28;20054;-59
2023/08/21 02:22:06;;;;;;;13.23;9.82;;;;;;;10.64;100.00;100246.00;4972385;28;20562;-60
2023/08/21 02:24:32;;;;;;;19.73;10.45;;;;;;;9.72;100.00;100081.19;4972586;28;20130;-59
2023/08/21 02:26:59;;;;;;;16.30;10.18;;;;;;;12.16;100.00;100473.19;4971865;28;20046;-59
2023/08/21 02:29:25;;;;;;;12.85;10.10;;;;;;;12.39;100.00;100522.50;4972479;28;20557;-60
2023/08/21 02:31:52;;;;;;;16.30;10.40;;;;;;;12.47;100.00;100515.38;4972603;28;20074;-60
2023/08/21 02:34:18;;;;;;;15.48;10.10;;;;;;;13.13;100.00;100640.50;4972524;28;20054;-59
2023/08/21 02:36:45;;;;;;;17.45;9.88;;;;;;;8.75;100.00;99949.09;4972772;28;20101;-61
2023/08/21 02:39:11;;;;;;;14.82;9.88;;;;;;;5.76;100.00;99463.34;4972308;28;20475;-61
2023/08/21 02:41:38;;;;;;;12.77;9.25;;;;;;;10.13;100.00;100162.34;4972329;28;20055;-59
2023/08/21 02:44:04;;;;;;;16.42;9.23;;;;;;;8.95;100.00;99968.31;4971972;28;20042;-60
2023/08/21 02:46:31;;;;;;;17.60;10.70;;;;;;;8.79;100.00;99958.47;4954666;28;20077;-60
2023/08/21 02:48:58;;;;;;;13.02;9.85;;;;;;;6.37;100.00;99573.31;4972404;28;20137;-60
2023/08/21 02:51:24;;;;;;;19.08;13.88;;;;;;;8.78;100.00;99949.59;4970911;28;20522;-60
2023/08/21 02:53:51;;;;;;;13.65;10.82;;;;;;;10.16;100.00;100174.53;4971011;28;20051;-60
2023/08/21 02:56:17;;;;;;;11.23;9.45;;;;;;;10.17;100.00;100176.22;4972412;28;20110;-60
2023/08/21 02:58:44;;;;;;;13.13;10.05;;;;;;;5.35;100.00;99415.31;4970704;28;20086;-59
2023/08/21 03:01:11;;;;;;;17.08;10.45;;;;;;;-0.71;100.00;98454.41;4954952;28;20055;-59
2023/08/21 03:03:38;;;;;;;17.17;10.68;;;;;;;2.55;100.00;98960.75;4971466;28;20524;-59
2023/08/21 03:06:04;;;;;;;14.98;9.23;;;;;;;8.88;100.00;99992.22;4971087;28;20042;-60
2023/08/21 03:08:31;;;;;;;15.15;9.02;;;;;;;9.87;100.00;100138.41;4970155;28;20101;-59
2023/08/21 03:10:58;;;;;;;15.73;9.55;;;;;;;9.98;100.00;100162.16;4971301;28;20101;-59
2023/08/21 03:13:25;;;;;;;17.30;9.50;;;;;;;10.86;100.00;100297.25;4971323;28;20070;-60
2023/08/21 03:15:51;;;;;;;12.57;8.75;;;;;;;11.86;100.00;100447.97;4971494;28;20105;-59
2023/08/21 03:18:18;;;;;;;13.98;9.30;;;;;;;11.87;100.00;100455.88;4972095;28;20101;-60
2023/08/21 03:20:46;;;;;;;13.23;9.13;;;;;;;12.44;100.00;100538.09;4971868;28;20055;-61
2023/08/21 03:23:13;;;;;;;12.75;9.05;;;;;;;13.45;100.00;100698.69;4971486;28;20073;-60
2023/08/21 03:25:39;;;;;;;15.77;9.23;;;;;;;14.47;100.00;100861.09;4970843;28;20062;-60
2023/08/21 03:28:06;;;;;;;13.52;9.82;;;;;;;14.40;100.00;100848.50;4970904;28;20097;-59
2023/08/21 03:30:32;;;;;;;16.17;10.00;;;;;;;14.30;100.00;100844.19;4970612;28;20189;-59
2023/08/21 03:33:00;;;;;;;14.05;8.98;;;;;;;13.85;100.00;100779.50;4970583;28;20475;-60
2023/08/21 03:35:26;;;;;;;12.20;8.77;;;;;;;13.76;100.00;100770.59;4971051;28;20507;-60
2023/08/21 03:37:54;;;;;;;13.85;9.13;;;;;;;13.85;100.00;100779.50;4971176;28;20117;-59
2023/08/21 03:40:20;;;;;;;16.75;9.48;;;;;;;12.23;100.00;100525.25;4970285;28;20455;-60
2023/08/21 03:42:47;;;;;;;13.90;9.85;;;;;;;12.34;100.00;100532.09;4971387;28;20121;-59
2023/08/21 03:45:13;;;;;;;14.25;10.13;;;;;;;13.00;100.00;100640.25;4970460;28;20198;-59
2023/08/21 03:47:40;;;;;;;14.15;9.60;;;;;;;13.64;100.00;100731.59;4970046;28;20141;-59
2023/08/21 03:50:08;;;;;;;15.57;10.57;;;;;;;14.19;100.00;100819.50;4970206;28;20051;-59
2023/08/21 03:52:34;;;;;;;15.50;10.45;;;;;;;14.26;100.00;100848.28;4969940;28;20046;-60
2023/08/21 03:55:01;;;;;;;13.48;9.57;;;;;;;14.49;100.00;100885.19;4970622;28;20135;-59
2023/08/21 03:57:28;;;;;;;14.95;9.75;;;;;;;14.47;100.00;100898.88;4969535;28;20569;-60
2023/08/21 03:59:54;;;;;;;13.80;9.73;;;;;;;14.08;100.00;100849.59;4970435;28;20179;-60
2023/08/21 04:02:21;;;;;;;17.80;9.63;;;;;;;13.67;100.00;100783.28;4969640;28;20047;-60
2023/08/21 04:04:51;;;;;;;19.02;10.23;;;;;;;12.96;100.00;100665.84;4969078;28;20053;-60
2023/08/21 04:07:18;;;;;;;16.67;9.88;;;;;;;13.26;100.00;100700.00;4971074;28;20049;-60
2023/08/21 04:09:44;;;;;;;12.52;9.25;;;;;;;13.09;100.00;100688.50;4969840;28;20043;-60
2023/08/21 04:12:12;;;;;;;14.90;10.48;;;;;;;12.91;100.00;100662.88;4970168;28;20051;-60
2023/08/21 04:14:39;;;;;;;15.88;9.63;;;;;;;11.81;100.00;100483.44;4970201;28;20061;-60
2023/08/21 04:17:05;;;;;;;15.55;9.73;;;;;;;11.97;100.00;100498.69;4970594;28;20098;-60
2023/08/21 04:19:33;;;;;;;17.25;9.98;;;;;;;9.95;100.00;100188.47;4969466;28;20113;-60
2023/08/21 04:22:00;;;;;;;15.65;9.75;;;;;;;9.67;100.00;100129.06;4970315;28;20122;-59
2023/08/21 04:24:26;;;;;;;16.42;10.40;;;;;;;11.01;100.00;100340.34;4970571;28;20495;-59
2023/08/21 04:26:53;;;;;;;13.95;10.15;;;;;;;11.40;100.00;100429.81;4969611;28;20444;-59
2023/08/21 04:29:20;;;;;;;18.70;9.93;;;;;;;12.64;100.00;100608.47;4970871;28;20491;-60
2023/08/21 04:31:46;;;;;;;12.90;8.90;;;;;;;13.30;100.00;100705.88;4969841;28;20133;-60
2023/08/21 04:34:13;;;;;;;10.70;8.45;;;;;;;14.89;100.00;100939.88;4969624;28;20054;-60
2023/08/21 04:36:40;;;;;;;15.80;9.55;;;;;;;15.27;100.00;101018.22;4969085;28;24631;-56
2023/08/21 04:39:06;;;;;;;19.02;11.10;;;;;;;15.31;100.00;101008.72;4982018;28;20094;-57
2023/08/21 04:41:33;;;;;;;18.70;9.38;;;;;;;15.37;100.00;101022.34;4982108;28;20462;-58
2023/08/21 04:44:00;;;;;;;16.48;9.68;;;;;;;14.67;100.00;100936.16;4967358;28;20047;-58
2023/08/21 04:46:27;;;;;;;10.77;9.25;;;;;;;14.04;100.00;100827.53;4962886;28;20118;-57
2023/08/21 04:48:54;;;;;;;12.35;8.57;;;;;;;15.03;100.00;100962.56;4962167;28;20071;-58
2023/08/21 04:51:20;;;;;;;15.95;10.10;;;;;;;16.14;100.00;101141.06;4969948;28;20050;-59
2023/08/21 04:53:47;;;;;;;16.70;9.55;;;;;;;15.74;100.00;101085.53;4982275;28;20050;-59
2023/08/21 04:56:13;;;;;;;18.58;10.32;;;;;;;15.49;100.00;101044.34;4982107;28;20043;-57
2023/08/21 04:58:40;;;;;;;16.67;10.60;;;;;;;14.82;100.00;100947.06;4967834;28;20055;-57
2023/08/21 05:01:07;;;;;;;12.65;9.55;;;;;;;14.65;100.00;100903.94;4979648;28;20043;-56
2023/08/21 05:03:33;;;;;;;13.32;9.93;;;;;;;14.65;100.00;100909.34;4982019;28;20058;-56
2023/08/21 05:06:00;;;;;;;14.20;10.02;;;;;;;14.66;100.00;100916.41;4982573;28;20069;-57
2023/08/21 05:08:27;;;;;;;14.60;10.27;;;;;;;14.48;100.00;100889.75;4982559;28;20051;-57
2023/08/21 05:10:57;;;;;;;21.17;9.73;;;;;;;14.81;100.00;100932.72;4974183;28;20119;-57
2023/08/21 05:13:25;;;;;;;13.27;9.52;;;;;;;14.59;100.00;100907.38;4971715;28;20054;-58
2023/08/21 05:15:56;;;;;;;15.30;10.02;;;;;;;14.62;100.00;100900.78;4980425;28;20057;-56
2023/08/21 05:18:24;;;;;;;21.08;10.13;;;;;;;14.64;100.00;100907.69;4983843;28;20565;-59
2023/08/21 05:20:53;;;;;;;20.73;10.15;;;;;;;14.39;100.00;100881.91;4984010;28;20043;-58
2023/08/21 05:23:19;;;;;;;11.93;10.07;;;;;;;13.81;100.00;100796.03;4985012;28;20098;-57
2023/08/21 05:25:48;;;;;;;16.50;9.85;;;;;;;13.34;100.00;100709.88;4983993;28;20051;-57
2023/08/21 05:28:15;;;;;;;16.35;9.95;;;;;;;14.52;100.00;100901.03;4984088;28;20050;-56
2023/08/21 05:30:41;;;;;;;15.90;9.40;;;;;;;15.33;100.00;101023.75;4982992;28;20055;-57
2023/08/21 05:33:08;;;;;;;17.73;10.40;;;;;;;15.36;100.00;101033.31;4983891;28;20506;-56
2023/08/21 05:35:38;;;;;;;17.00;9.43;;;;;;;15.26;100.00;101022.81;4968698;28;20048;-58
2023/08/21 05:38:05;;;;;;;16.05;10.05;;;;;;;15.20;100.00;101018.97;4964300;28;20129;-57
2023/08/21 05:40:32;;;;;;;19.63;9.35;;;;;;;15.16;100.00;101009.53;4963509;28;20055;-56
2023/08/21 05:42:59;;;;;;;16.40;10.93;;;;;;;15.36;100.00;101030.63;4963853;28;20102;-56
2023/08/21 05:45:25;;;;;;;15.35;9.75;;;;;;;15.87;100.00;101099.25;4964527;28;20058;-55
2023/08/21 05:47:52;;;;;;;14.82;10.00;;;;;;;16.27;100.00;101156.66;4964533;28;20055;-56
2023/08/21 05:50:18;;;;;;;12.73;8.80;;;;;;;17.75;100.00;101386.03;4964899;28;20233;-56
2023/08/21 05:52:45;;;;;;;15.90;9.13;;;;;;;18.11;100.00;101420.47;4963479;28;20129;-57
2023/08/21 05:55:12;;;;;;;19.17;10.70;;;;;;;18.07;100.00;101430.88;4964354;28;20051;-56
2023/08/21 05:57:38;;;;;;;15.10;9.40;;;;;;;18.25;100.00;101444.03;4963389;28;20043;-57
2023/08/21 06:00:08;;;;;;;15.15;9.10;;;;;;;18.39;100.00;101454.00;4972048;28;20047;-57
2023/08/21 06:02:35;;;;;;;15.68;9.10;;;;;;;18.62;100.00;101469.25;4983029;28;20057;-58
2023/08/21 06:05:03;;;;;;;19.48;8.55;;;;;;;18.86;100.00;101465.25;4983529;28;20050;-58
2023/08/21 06:07:29;;;;;;;12.02;8.13;;;;;;;19.03;100.00;101472.13;4982492;28;20061;-57
2023/08/21 06:09:56;;;;;;;11.10;7.55;;;;;;;19.15;100.00;101483.31;4982441;28;20042;-55
2023/08/21 06:12:22;;;;;;;14.70;8.05;;;;;;;19.16;100.00;101482.25;4981754;28;20042;-56
2023/08/21 06:14:50;;;;;;;15.40;8.60;;;;;;;19.43;100.00;101486.84;4982435;28;20051;-56
2023/08/21 06:17:17;;;;;;;11.82;8.00;;;;;;;19.68;100.00;101495.38;4981462;28;20432;-57
2023/08/21 06:19:44;;;;;;;16.10;7.80;;;;;;;19.80;100.00;101500.25;4981265;28;20054;-57
2023/08/21 06:22:10;;;;;;;14.07;7.82;;;;;;;19.94;100.00;101505.56;4981776;28;20077;-56
2023/08/21 06:24:37;;;;;;;20.85;7.70;;;;;;;20.09;100.00;101512.72;4981755;28;20510;-56
2023/08/21 06:27:03;;;;;;;9.65;7.22;;;;;;;20.04;100.00;101520.66;4981520;28;20053;-57
2023/08/21 06:29:33;;;;;;;15.15;8.18;;;;;;;20.11;100.00;101521.53;4982110;28;20053;-57
2023/08/21 06:32:00;;;;;;;12.82;9.07;;;;;;;20.02;100.00;101522.75;4980489;28;20109;-55
2023/08/21 06:34:26;;;;;;;18.15;8.77;;;;;;;20.06;100.00;101535.75;4963475;28;20106;-56
2023/08/21 06:36:53;;;;;;;11.90;8.55;;;;;;;20.26;100.00;101535.00;4980886;28;20051;-57
2023/08/21 06:39:20;;;;;;;11.15;8.38;;;;;;;20.25;100.00;101534.16;4980514;28;20042;-56
2023/08/21 06:41:46;;;;;;;11.27;8.43;;;;;;;20.46;100.00;101533.22;4981771;28;20115;-58
2023/08/21 06:44:13;;;;;;;11.73;8.43;;;;;;;20.50;100.00;101533.63;4980993;28;20443;-56
2023/08/21 06:46:39;;;;;;;14.52;8.48;;;;;;;20.44;100.00;101533.38;4980831;28;20046;-55
2023/08/21 06:49:06;;;;;;;13.95;8.20;;;;;;;20.32;100.00;101540.47;4980717;28;20466;-55
2023/08/21 06:51:32;;;;;;;25.42;8.88;;;;;;;20.42;100.00;101535.50;4979850;28;20051;-56
2023/08/21 06:53:59;;;;;;;11.88;7.53;;;;;;;20.64;100.00;101533.44;4980361;28;20051;-56
2023/08/21 06:56:25;;;;;;;10.10;7.10;;;;;;;20.64;100.00;101543.50;4980174;28;20475;-57
2023/08/21 06:58:54;;;;;;;15.27;7.93;;;;;;;20.75;100.00;101542.06;4979501;28;20046;-60
2023/08/21 07:01:21;;;;;;;13.00;9.10;;;;;;;20.78;100.00;101545.19;4979339;28;20078;-61
2023/08/21 07:03:48;;;;;;;11.20;7.43;;;;;;;20.68;100.00;101537.41;4980028;28;20061;-60
2023/08/21 07:06:16;;;;;;;13.02;7.85;;;;;;;20.92;100.00;101538.69;4980227;28;20097;-61
2023/08/21 07:08:43;;;;;;;16.45;7.65;;;;;;;21.06;100.00;101549.63;4979828;28;20046;-61
2023/08/21 07:11:10;;;;;;;11.30;7.50;;;;;;;21.14;100.00;101541.25;4979652;28;20043;-60
2023/08/21 07:13:37;;;;;;;15.63;7.00;;;;;;;21.31;100.00;101547.94;4978857;28;20086;-60
2023/08/21 07:16:05;;;;;;;9.93;6.22;;;;;;;21.27;100.00;101554.88;4978804;28;20538;-62
2023/08/21 07:18:35;;;;;;;8.90;5.68;;;;;;;21.28;100.00;101562.00;4979315;28;20078;-60
2023/08/21 07:21:04;;;;;;;12.18;7.78;;;;;;;21.49;100.00;101560.09;4978500;28;20101;-60
2023/08/21 07:23:48;;;;;;;7.60;5.38;;;;;;;21.98;100.00;101562.34;4969378;28;20062;-61
2023/08/21 07:26:15;;;;;;;10.95;5.80;;;;;;;22.31;100.00;101566.81;4977523;28;20047;-61
2023/08/21 07:28:41;;;;;;;8.35;4.70;;;;;;;22.48;100.00;101578.09;4978329;28;20051;-61
2023/08/21 07:31:10;;;;;;;10.93;5.18;;;;;;;22.45;100.00;101578.50;4978054;28;20046;-59
2023/08/21 07:33:36;;;;;;;7.28;4.72;;;;;;;22.37;100.00;101573.31;4977516;28;20070;-59
2023/08/21 07:36:04;;;;;;;7.63;4.45;;;;;;;22.23;100.00;101569.81;4977560;28;20058;-59
2023/08/21 07:38:32;;;;;;;10.27;4.80;;;;;;;22.26;100.00;101566.63;4977799;28;20057;-59
2023/08/21 07:41:10;;;;;;;7.78;4.38;;;;;;;22.30;100.00;101568.69;4977174;28;20077;-59
2023/08/21 07:43:41;;;;;;;14.55;5.15;;;;;;;22.25;100.00;101579.44;4977246;28;20081;-59
2023/08/21 07:46:13;;;;;;;8.07;4.35;;;;;;;22.45;100.00;101575.78;4976692;28;20121;-59
2023/08/21 07:48:40;;;;;;;16.60;4.47;;;;;;;22.56;100.00;101581.41;4960701;28;20055;-59
2023/08/21 07:51:07;;;;;;;8.52;4.35;;;;;;;22.75;100.00;101581.53;4977069;28;20051;-59
2023/08/21 07:53:34;;;;;;;9.88;4.30;;;;;;;22.74;100.00;101583.44;4976967;28;20086;-61
2023/08/21 07:56:03;;;;;;;7.65;4.00;;;;;;;22.51;100.00;101588.59;4967467;28;20090;-59
2023/08/21 07:58:30;;;;;;;8.07;3.75;;;;;;;22.81;100.00;101594.31;4977244;28;20054;-60
2023/08/21 08:00:57;;;;;;;8.27;3.05;;;;;;;22.48;100.00;101598.09;4978832;28;20046;-59
2023/08/21 08:03:24;;;;;;;10.45;3.53;;;;;;;22.41;100.00;101594.50;4979050;28;20498;-59
2023/08/21 08:05:50;;;;;;;12.68;4.40;;;;;;;22.59;100.00;101596.56;4979158;28;20066;-59
2023/08/21 08:08:21;;;;;;;7.53;3.65;;;;;;;22.40;100.00;101592.00;4978574;28;20047;-60
2023/08/21 08:10:48;;;;;;;9.98;3.53;;;;;;;22.26;100.00;101593.97;4979585;28;20078;-60
2023/08/21 08:13:14;;;;;;;9.68;3.28;;;;;;;22.18;100.00;101595.03;4978249;28;20422;-61
2023/08/21 08:15:41;;;;;;;7.05;3.08;;;;;;;22.14;100.00;101593.78;4978155;28;20557;-59
2023/08/21 08:18:12;;;;;;;6.38;2.85;;;;;;;22.20;100.00;101597.56;4961549;28;20074;-60
2023/08/21 08:20:39;;;;;;;12.85;2.92;;;;;;;22.22;100.00;101592.69;4978224;28;20050;-60
2023/08/21 08:23:06;;;;;;;6.75;2.53;;;;;;;22.21;100.00;101591.88;4978831;28;20046;-60
2023/08/21 08:25:33;;;;;;;7.53;2.60;;;;;;;22.37;100.00;101593.28;4979085;28;20058;-59
2023/08/21 08:27:59;;;;;;;7.25;2.67;;;;;;;22.64;100.00;101588.53;4978639;28;20047;-59
2023/08/21 08:30:26;;;;;;;9.73;2.40;;;;;;;22.85;96.88;101592.00;4978400;28;20470;-59
2023/08/21 08:32:53;;;;;;;5.68;2.10;;;;;;;22.88;95.57;101591.53;4978807;28;20068;-60
2023/08/21 08:35:19;;;;;;;9.73;2.95;;;;;;;22.74;97.54;101586.16;4978864;28;20511;-58
2023/08/21 08:37:46;;;;;;;6.50;2.53;;;;;;;23.65;85.00;101592.16;4978875;28;20045;-60
2023/08/21 08:40:13;;;;;;;9.15;2.72;;;;;;;23.66;81.87;101583.72;4977524;28;20399;-60
2023/08/21 08:42:40;;;;;;;8.13;2.42;;;;;;;24.11;76.25;101597.16;4977565;28;20054;-58
2023/08/21 08:45:07;;;;;;;7.05;2.85;;;;;;;24.33;70.33;101592.00;4977723;28;20051;-59
2023/08/21 08:47:34;;;;;;;7.45;2.55;;;;;;;25.10;67.62;101586.72;4977604;28;20057;-58
2023/08/21 08:50:04;;;;;;;6.07;2.30;;;;;;;24.31;69.41;101590.59;4976503;28;20074;-58
2023/08/21 08:52:35;;;;;;;6.93;2.70;;;;;;;24.20;69.59;101587.56;4978336;28;20055;-60
2023/08/21 08:55:03;;;;;;;8.38;2.97;;;;;;;24.51;69.34;101593.06;4980848;28;20620;-60
2023/08/21 08:57:30;;;;;;;8.38;2.50;;;;;;;25.10;66.77;101597.72;4980760;28;20051;-59
2023/08/21 08:59:57;;;;;;;4.93;2.13;;;;;;;25.09;62.42;101590.53;4980436;28;20047;-60
2023/08/21 09:02:26;;;;;;;10.43;2.80;;;;;;;25.70;60.76;101599.41;4980802;28;20074;-60
2023/08/21 09:04:53;;;;;;;5.97;2.13;;;;;;;26.29;57.44;101588.31;4980901;28;20081;-60
2023/08/21 09:07:20;;;;;;;5.55;2.33;;;;;;;26.26;55.38;101588.81;4980808;28;20110;-59
2023/08/21 09:09:52;;;;;;;5.43;2.00;;;;;;;26.52;51.80;101585.50;4980985;28;20046;-60
2023/08/21 09:12:20;;;;;;;4.60;1.70;;;;;;;27.30;49.36;101587.66;4980546;28;20105;-59
2023/08/21 09:14:47;;;;;;;5.47;2.10;;;;;;;27.10;50.09;101585.41;4980667;28;20051;-62
2023/08/21 09:17:15;;;;;;;6.60;1.60;;;;;;;27.71;45.32;101578.09;4979318;28;20046;-60
2023/08/21 09:19:42;;;;;;;4.57;1.70;;;;;;;27.53;45.73;101572.88;4980362;28;20055;-60
2023/08/21 09:22:15;;;;;;;3.95;1.27;;;;;;;27.11;44.88;101578.84;4980446;28;20414;-57
2023/08/21 09:25:06;;;;;;;4.40;1.35;;;;;;;26.12;44.48;101587.41;4980032;28;20062;-60
2023/08/21 09:27:35;;;;;;;4.32;1.33;;;;;;;25.92;47.74;101580.38;4979628;28;20043;-58
2023/08/21 09:30:08;;;;;;;6.00;1.30;;;;;;;26.55;46.81;101576.75;4978605;28;20097;-60
2023/08/21 09:32:59;;;;;;;3.42;1.60;;;;;;;26.61;45.35;101576.81;4978860;28;20090;-60
2023/08/21 09:35:26;;;;;;;2.85;1.20;;;;;;;26.14;46.79;101586.06;4978742;28;20074;-59
2023/08/21 09:37:53;;;;;;;3.95;1.33;;;;;;;26.02;46.46;101577.00;4979919;28;20078;-59
2023/08/21 09:40:21;;;;;;;5.10;1.50;;;;;;;27.58;43.94;101573.78;4979997;28;20055;-60
2023/08/21 09:42:58;;;;;;;3.70;1.27;;;;;;;27.93;43.23;101584.47;4978690;28;20049;-60
2023/08/21 09:45:30;;;;;;;5.63;1.10;;;;;;;28.60;40.54;101577.84;4979512;28;20466;-60
2023/08/21 09:47:58;;;;;;;5.15;1.52;;;;;;;29.50;39.28;101574.47;4979263;28;20046;-58
2023/08/21 09:50:26;;;;;;;3.53;1.25;;;;;;;29.33;38.63;101577.38;4978814;28;20043;-57
2023/08/21 09:52:53;;;;;;;3.88;1.40;;;;;;;28.95;38.18;101572.91;4979341;28;20051;-59
2023/08/21 09:55:21;;;;;;;4.80;1.27;;;;;;;28.80;39.54;101570.84;4979947;28;20043;-56
2023/08/21 09:57:56;;;;;;;4.50;1.33;;;;;;;28.81;39.43;101567.81;4978989;28;20483;-59
2023/08/21 10:00:30;;;;;;;6.10;1.30;;;;;;;27.95;40.94;101568.53;4978883;28;20046;-58
2023/08/21 10:03:07;;;;;;;4.05;1.50;;;;;;;27.91;41.11;101570.13;4978402;28;20419;-58
2023/08/21 10:05:36;;;;;;;5.93;1.75;;;;;;;28.38;40.11;101555.75;4978433;28;20062;-58
2023/08/21 10:08:06;;;;;;;6.18;1.48;;;;;;;29.15;38.90;101567.59;4978459;28;20129;-58
2023/08/21 10:10:35;;;;;;;6.72;1.38;;;;;;;28.74;38.97;101566.38;4979765;28;20063;-58
2023/08/21 10:13:04;;;;;;;4.20;1.40;;;;;;;26.89;41.29;101571.28;4979475;28;20046;-59
2023/08/21 10:15:33;;;;;;;5.05;1.40;;;;;;;26.20;43.83;101570.53;4979194;28;20078;-59
2023/08/21 10:18:30;;;;;;;5.22;1.30;;;;;;;26.61;43.18;101572.16;4979059;28;20113;-58
2023/08/21 10:21:10;;;;;;;5.50;1.27;;;;;;;27.62;40.95;101565.84;4978825;28;20042;-59
2023/08/21 10:23:38;;;;;;;2.53;1.10;;;;;;;28.73;39.57;101565.53;4978356;28;20050;-58
2023/08/21 10:26:11;;;;;;;4.85;1.40;;;;;;;29.43;37.95;101574.69;4979138;28;20287;-58
2023/08/21 10:29:01;;;;;;;3.22;1.27;;;;;;;28.99;36.92;101571.31;4962613;28;20566;-57
2023/08/21 10:31:40;;;;;;;2.88;1.10;;;;;;;29.90;37.29;101567.47;4979561;28;20391;-58
2023/08/21 10:34:18;;;;;;;3.30;1.05;;;;;;;29.62;37.45;101569.56;4978063;28;20043;-58
2023/08/21 10:36:45;;;;;;;3.25;1.30;;;;;;;27.98;39.47;101569.13;4979275;28;20070;-56
2023/08/21 10:39:23;;;;;;;3.90;1.35;;;;;;;27.97;40.43;101576.53;4978645;28;20043;-57
2023/08/21 10:42:07;;;;;;;6.45;1.80;;;;;;;27.87;40.62;101555.19;4978866;28;20462;-59
2023/08/21 10:44:57;;;;;;;3.90;1.60;;;;;;;28.24;40.61;101559.19;4978568;28;20093;-59
2023/08/21 10:47:30;;;;;;;5.25;1.48;;;;;;;27.79;41.06;101566.63;4978146;28;20046;-58
2023/08/21 10:50:03;;;;;;;5.25;1.55;;;;;;;27.17;40.72;101561.28;4978383;28;20047;-59
2023/08/21 10:52:39;;;;;;;4.88;1.30;;;;;;;26.92;42.17;101562.53;4978199;28;20057;-58
2023/08/21 10:55:09;;;;;;;6.55;1.75;;;;;;;26.63;43.09;101566.41;4978374;28;20142;-56
2023/08/21 10:57:36;;;;;;;7.47;1.17;;;;;;;27.12;41.90;101567.56;4979446;28;20111;-58
2023/08/21 11:00:08;;;;;;;6.07;1.67;;;;;;;27.79;41.24;101572.13;4978267;28;20651;-60
2023/08/21 11:02:36;;;;;;;6.78;1.70;;;;;;;27.39;41.20;101570.50;4960997;28;20070;-57
2023/08/21 11:05:04;;;;;;;8.85;1.63;;;;;;;28.05;40.76;101572.50;4977571;28;20050;-58
2023/08/21 11:07:36;;;;;;;4.10;1.40;;;;;;;27.92;41.12;101576.47;4977575;28;20057;-57
2023/08/21 11:10:05;;;;;;;4.40;1.60;;;;;;;27.16;42.37;101579.72;4978157;28;20046;-59
2023/08/21 11:12:34;;;;;;;5.53;1.83;;;;;;;26.44;43.67;101580.34;4977932;28;20055;-58
2023/08/21 11:15:00;;;;;;;5.70;1.70;;;;;;;26.32;43.87;101585.09;4977264;28;20066;-57
2023/08/21 11:17:27;;;;;;;4.07;1.30;;;;;;;25.67;44.47;101574.34;4978811;28;20212;-57
2023/08/21 11:19:53;;;;;;;6.78;1.55;;;;;;;25.17;44.96;101580.28;4978574;28;20464;-57